Time;durP1;ratioP1;P1;durP2;ratioP2;P2;SDS_P1;SDS_P2;PMS_P1;PMS_P2;Temp;Humidity;BMP_temperature;BMP_pressure;BME280_temperature;BME280_humidity;BME280_pressure;Samples;Min_cycle;Max_cycle;Signal;HPM_P1;HPM_P2
2023/07/19 00:00:50;;;;;;;1.83;1.08;;;;;;;16.80;97.56;100498.97;5200082;28;20115;-73
2023/07/19 00:03:21;;;;;;;4.18;1.25;;;;;;;16.71;98.94;100494.25;5189378;28;20030;-73
2023/07/19 00:05:52;;;;;;;9.82;1.50;;;;;;;16.69;98.92;100493.50;5174027;28;20065;-74
2023/07/19 00:08:22;;;;;;;1.70;1.00;;;;;;;16.63;100.00;100485.97;5190522;28;20384;-73
2023/07/19 00:10:52;;;;;;;2.65;1.10;;;;;;;16.47;100.00;100485.22;5161035;28;20317;-73
2023/07/19 00:13:23;;;;;;;4.72;1.00;;;;;;;16.33;100.00;100479.03;5181162;28;20660;-73
2023/07/19 00:15:54;;;;;;;3.10;0.90;;;;;;;16.23;100.00;100480.53;5200188;28;20042;-73
2023/07/19 00:18:24;;;;;;;3.05;1.10;;;;;;;16.25;100.00;100473.38;5180120;28;20398;-73
2023/07/19 00:20:55;;;;;;;3.07;1.20;;;;;;;16.24;100.00;100469.88;5195322;28;20027;-73
2023/07/19 00:23:26;;;;;;;3.40;1.10;;;;;;;16.35;100.00;100469.28;5183850;28;20291;-73
2023/07/19 00:25:56;;;;;;;2.65;1.10;;;;;;;16.40;100.00;100469.84;5187210;28;20420;-74
2023/07/19 00:28:26;;;;;;;3.53;1.10;;;;;;;16.35;100.00;100467.50;5184438;28;20079;-73
2023/07/19 00:31:03;;;;;;;3.47;1.13;;;;;;;16.42;100.00;100470.59;5190285;28;20028;-73
2023/07/19 00:33:33;;;;;;;3.53;1.25;;;;;;;16.25;100.00;100458.38;5191690;28;20117;-73
2023/07/19 00:36:04;;;;;;;2.47;1.00;;;;;;;16.57;100.00;100465.22;5202896;28;20117;-73
2023/07/19 00:38:35;;;;;;;2.22;1.00;;;;;;;16.49;100.00;100456.94;5209694;28;20030;-73
2023/07/19 00:41:05;;;;;;;3.22;1.10;;;;;;;16.60;100.00;100443.94;5201655;28;20397;-73
2023/07/19 00:43:36;;;;;;;5.68;1.30;;;;;;;16.82;99.81;100445.13;5199734;28;20039;-73
2023/07/19 00:46:07;;;;;;;5.15;1.30;;;;;;;16.79;98.07;100447.13;5183297;28;20048;-73
2023/07/19 00:48:37;;;;;;;3.28;1.25;;;;;;;16.36;100.00;100445.44;5203859;28;20030;-74
2023/07/19 00:51:07;;;;;;;2.45;1.02;;;;;;;16.21;100.00;100451.63;5194335;28;20121;-74
2023/07/19 00:53:39;;;;;;;1.80;0.98;;;;;;;16.36;100.00;100439.34;5213087;23;20042;-72
2023/07/19 00:56:10;;;;;;;2.80;1.20;;;;;;;16.58;100.00;100439.69;5156723;28;20415;-72
2023/07/19 00:58:41;;;;;;;4.72;1.42;;;;;;;16.50;100.00;100437.53;5160049;28;20042;-71
2023/07/19 01:01:12;;;;;;;2.08;1.08;;;;;;;16.40;100.00;100430.28;5159781;28;20030;-72
2023/07/19 01:03:42;;;;;;;2.63;1.30;;;;;;;16.35;100.00;100430.56;5159039;28;20108;-71
2023/07/19 01:06:12;;;;;;;2.03;1.00;;;;;;;16.15;100.00;100436.16;5155262;28;20026;-72
2023/07/19 01:08:43;;;;;;;2.00;0.98;;;;;;;16.35;100.00;100427.91;5155085;28;20743;-71
2023/07/19 01:11:13;;;;;;;2.60;1.17;;;;;;;16.51;100.00;100427.81;5154628;28;20224;-72
2023/07/19 01:13:54;;;;;;;2.92;0.95;;;;;;;16.51;100.00;100430.44;5154678;28;20520;-71
2023/07/19 01:16:24;;;;;;;2.00;1.10;;;;;;;16.49;100.00;100425.28;5155329;28;20033;-72
2023/07/19 01:18:55;;;;;;;3.97;1.08;;;;;;;16.36;100.00;100419.06;5153846;28;20488;-72
2023/07/19 01:21:25;;;;;;;6.78;1.52;;;;;;;16.08;100.00;100419.00;5161959;28;20048;-71
2023/07/19 01:23:56;;;;;;;2.60;0.90;;;;;;;16.04;100.00;100416.66;5167903;28;20498;-72
2023/07/19 01:26:26;;;;;;;3.92;1.20;;;;;;;15.73;100.00;100411.53;5152566;28;20121;-72
2023/07/19 01:28:57;;;;;;;3.65;1.20;;;;;;;15.52;100.00;100413.63;5153770;28;20041;-71
2023/07/19 01:31:27;;;;;;;9.18;1.30;;;;;;;15.84;100.00;100404.69;5153429;28;20044;-71
2023/07/19 01:33:58;;;;;;;3.90;0.93;;;;;;;15.90;100.00;100404.28;5151023;28;20026;-71
2023/07/19 01:36:28;;;;;;;5.20;1.85;;;;;;;15.66;100.00;100400.50;5152850;28;20018;-71
2023/07/19 01:38:58;;;;;;;2.38;1.00;;;;;;;15.60;100.00;100398.22;5151738;28;20037;-72
2023/07/19 01:41:28;;;;;;;3.88;1.30;;;;;;;15.59;100.00;100396.53;5153406;28;20041;-72
2023/07/19 01:43:59;;;;;;;2.67;1.20;;;;;;;15.42;100.00;100391.41;5153254;28;20033;-72
2023/07/19 01:46:29;;;;;;;3.55;1.75;;;;;;;15.51;100.00;100392.66;5152765;28;20034;-70
2023/07/19 01:49:00;;;;;;;2.30;1.23;;;;;;;15.47;100.00;100389.34;5153194;28;20027;-72
2023/07/19 01:51:30;;;;;;;1.92;1.10;;;;;;;15.54;100.00;100385.41;5154259;28;20030;-72
2023/07/19 01:54:00;;;;;;;2.58;1.30;;;;;;;15.51;100.00;100384.75;5152353;28;20530;-72
2023/07/19 01:56:31;;;;;;;1.77;1.05;;;;;;;15.42;100.00;100378.25;5154909;28;20026;-71
2023/07/19 01:59:01;;;;;;;4.20;1.30;;;;;;;15.43;100.00;100366.75;5153281;28;20037;-72
2023/07/19 02:01:31;;;;;;;3.03;1.10;;;;;;;15.53;100.00;100383.72;5154692;28;20022;-71
2023/07/19 02:04:02;;;;;;;3.90;0.98;;;;;;;15.41;100.00;100379.19;5153258;28;20073;-71
2023/07/19 02:06:32;;;;;;;2.72;1.10;;;;;;;15.34;100.00;100380.44;5153006;28;20050;-71
2023/07/19 02:09:02;;;;;;;2.38;1.35;;;;;;;15.58;100.00;100388.72;5152628;28;20034;-71
2023/07/19 02:11:34;;;;;;;2.90;1.00;;;;;;;15.71;100.00;100382.63;5152747;28;20061;-71
2023/07/19 02:14:04;;;;;;;2.70;1.10;;;;;;;15.71;100.00;100374.72;5152088;28;20037;-72
2023/07/19 02:16:35;;;;;;;5.35;1.23;;;;;;;15.78;100.00;100383.97;5153143;28;20035;-71
2023/07/19 02:19:06;;;;;;;4.65;1.10;;;;;;;15.55;100.00;100373.91;5165507;28;20487;-72
2023/07/19 02:21:36;;;;;;;4.32;1.65;;;;;;;15.38;100.00;100371.44;5159474;28;20365;-72
2023/07/19 02:24:07;;;;;;;3.40;1.13;;;;;;;15.29;100.00;100368.47;5152333;28;20038;-71
2023/07/19 02:26:37;;;;;;;3.55;1.20;;;;;;;15.20;100.00;100366.38;5152554;28;20285;-72
2023/07/19 02:29:07;;;;;;;2.33;1.20;;;;;;;15.23;100.00;100353.03;5153040;28;20034;-72
2023/07/19 02:31:38;;;;;;;2.17;1.20;;;;;;;15.27;100.00;100365.94;5153719;28;20026;-71
2023/07/19 02:34:08;;;;;;;3.08;1.20;;;;;;;15.32;100.00;100363.91;5150486;28;20026;-72
2023/07/19 02:36:39;;;;;;;3.17;1.38;;;;;;;15.25;100.00;100362.53;5153963;28;20496;-72
2023/07/19 02:39:09;;;;;;;2.83;1.20;;;;;;;15.31;100.00;100359.56;5152629;28;20018;-71
2023/07/19 02:41:39;;;;;;;4.18;1.30;;;;;;;15.39;100.00;100362.59;5154193;28;20107;-71
2023/07/19 02:44:10;;;;;;;2.85;1.33;;;;;;;15.48;100.00;100364.69;5153545;28;20030;-72
2023/07/19 02:46:40;;;;;;;5.43;1.50;;;;;;;15.46;100.00;100363.94;5153324;28;20069;-72
2023/07/19 02:49:11;;;;;;;2.53;1.20;;;;;;;15.44;100.00;100357.06;5152809;28;20027;-71
2023/07/19 02:51:41;;;;;;;2.45;1.30;;;;;;;15.44;100.00;100354.44;5153667;28;20135;-71
2023/07/19 02:54:12;;;;;;;4.13;1.33;;;;;;;15.65;100.00;100361.06;5152845;28;20305;-72
2023/07/19 02:56:42;;;;;;;1.75;1.08;;;;;;;15.95;100.00;100367.13;5155948;28;20034;-71
2023/07/19 02:59:13;;;;;;;2.90;1.10;;;;;;;15.94;100.00;100361.03;5155906;28;20061;-71
2023/07/19 03:01:43;;;;;;;4.78;2.30;;;;;;;15.80;100.00;100371.53;5157067;28;20022;-71
2023/07/19 03:04:14;;;;;;;3.13;1.27;;;;;;;15.92;100.00;100365.53;5155781;28;20488;-71
2023/07/19 03:06:44;;;;;;;2.95;1.25;;;;;;;16.00;100.00;100367.69;5157210;28;20113;-71
2023/07/19 03:09:15;;;;;;;4.30;1.33;;;;;;;15.77;100.00;100365.59;5154881;28;20071;-71
2023/07/19 03:11:45;;;;;;;2.88;1.20;;;;;;;15.94;100.00;100363.66;5156879;28;20304;-71
2023/07/19 03:14:15;;;;;;;2.10;1.10;;;;;;;15.96;100.00;100369.69;5166523;28;20031;-71
2023/07/19 03:16:45;;;;;;;1.90;1.00;;;;;;;15.57;100.00;100374.69;5167881;28;20033;-72
2023/07/19 03:19:16;;;;;;;2.13;1.13;;;;;;;15.55;100.00;100366.03;5155860;28;20022;-71
2023/07/19 03:21:46;;;;;;;4.38;1.30;;;;;;;15.59;100.00;100361.44;5156947;28;20038;-71
2023/07/19 03:24:16;;;;;;;2.88;1.10;;;;;;;15.68;100.00;100369.63;5155770;28;20034;-72
2023/07/19 03:26:47;;;;;;;2.45;1.10;;;;;;;15.81;100.00;100360.06;5156049;28;20081;-71
2023/07/19 03:29:17;;;;;;;4.00;1.40;;;;;;;15.81;100.00;100351.28;5155856;28;20022;-70
2023/07/19 03:31:47;;;;;;;3.03;1.00;;;;;;;16.00;100.00;100352.72;5156817;28;20303;-71
2023/07/19 03:34:17;;;;;;;2.05;1.15;;;;;;;15.78;100.00;100352.34;5153023;28;20041;-71
2023/07/19 03:36:48;;;;;;;5.18;1.67;;;;;;;15.49;100.00;100350.59;5155457;28;20041;-69
2023/07/19 03:39:18;;;;;;;2.65;1.17;;;;;;;15.49;100.00;100347.97;5156354;28;20113;-71
2023/07/19 03:41:48;;;;;;;2.22;1.30;;;;;;;15.43;100.00;100350.97;5155370;28;20030;-69
2023/07/19 03:44:19;;;;;;;1.80;1.30;;;;;;;15.33;100.00;100360.31;5156669;28;20045;-71
2023/07/19 03:46:49;;;;;;;3.50;1.33;;;;;;;15.35;100.00;100361.06;5155588;28;20325;-70
2023/07/19 03:49:20;;;;;;;4.10;1.30;;;;;;;15.36;100.00;100349.59;5155650;28;20531;-71
2023/07/19 03:51:50;;;;;;;6.63;1.50;;;;;;;15.39;100.00;100348.59;5154935;28;20105;-72
2023/07/19 03:54:20;;;;;;;2.42;1.15;;;;;;;15.21;100.00;100355.72;5155353;28;20272;-72
2023/07/19 03:56:51;;;;;;;2.63;1.20;;;;;;;15.26;100.00;100353.69;5154005;28;20109;-71
2023/07/19 03:59:21;;;;;;;3.10;1.25;;;;;;;15.32;100.00;100353.38;5155952;28;20023;-70
2023/07/19 04:01:51;;;;;;;3.30;1.40;;;;;;;15.26;100.00;100353.69;5153674;28;20098;-70
2023/07/19 04:04:21;;;;;;;3.43;1.27;;;;;;;15.25;100.00;100348.50;5155257;28;20273;-70
2023/07/19 04:06:52;;;;;;;3.63;1.27;;;;;;;15.25;100.00;100348.50;5155959;28;20292;-70
2023/07/19 04:09:22;;;;;;;4.07;1.27;;;;;;;15.31;100.00;100351.66;5155371;28;20068;-70
2023/07/19 04:11:52;;;;;;;3.90;1.40;;;;;;;15.45;100.00;100346.44;5168167;28;20034;-71
2023/07/19 04:14:22;;;;;;;6.68;1.35;;;;;;;15.42;100.00;100349.25;5166228;28;20059;-71
2023/07/19 04:16:53;;;;;;;2.55;1.38;;;;;;;15.64;100.00;100354.09;5155483;28;20038;-72
2023/07/19 04:19:23;;;;;;;2.38;1.10;;;;;;;15.61;100.00;100344.59;5155980;28;20022;-72
2023/07/19 04:21:53;;;;;;;3.80;1.27;;;;;;;15.59;100.00;100346.47;5156566;28;20030;-71
2023/07/19 04:24:24;;;;;;;3.75;1.30;;;;;;;15.61;100.00;100347.25;5155059;28;20041;-71
2023/07/19 04:26:54;;;;;;;3.67;1.23;;;;;;;15.83;100.00;100347.63;5154333;28;20408;-72
2023/07/19 04:29:24;;;;;;;2.80;1.27;;;;;;;15.94;100.00;100355.75;5155985;28;20038;-72
2023/07/19 04:31:55;;;;;;;3.45;1.50;;;;;;;15.81;100.00;100356.56;5150526;28;20328;-71
2023/07/19 04:34:25;;;;;;;4.93;1.33;;;;;;;15.92;100.00;100348.88;5164133;28;20022;-71
2023/07/19 04:36:55;;;;;;;2.13;1.15;;;;;;;15.92;100.00;100357.63;5161192;28;20041;-71
2023/07/19 04:39:26;;;;;;;5.25;1.35;;;;;;;15.87;100.00;100362.31;5155705;28;20029;-72
2023/07/19 04:41:56;;;;;;;7.10;1.23;;;;;;;16.07;100.00;100350.56;5154070;28;20156;-71
2023/07/19 04:44:26;;;;;;;3.60;1.20;;;;;;;16.26;100.00;100348.47;5156019;28;20472;-71
2023/07/19 04:46:56;;;;;;;4.20;1.20;;;;;;;16.23;100.00;100348.69;5154513;28;20030;-71
2023/07/19 04:49:27;;;;;;;5.20;1.40;;;;;;;16.22;100.00;100347.81;5154716;28;20041;-72
2023/07/19 04:51:59;;;;;;;3.70;1.38;;;;;;;16.18;100.00;100343.69;5154627;28;20026;-72
2023/07/19 04:54:29;;;;;;;4.18;1.42;;;;;;;16.52;100.00;100334.56;5155577;28;20041;-71
2023/07/19 04:56:59;;;;;;;5.20;1.50;;;;;;;16.58;100.00;100342.91;5154682;28;20484;-72
2023/07/19 04:59:30;;;;;;;1.65;1.00;;;;;;;16.54;100.00;100345.84;5155633;28;20023;-71
2023/07/19 05:02:00;;;;;;;2.22;1.27;;;;;;;16.51;100.00;100344.25;5154529;28;20043;-72
2023/07/19 05:04:30;;;;;;;3.10;1.20;;;;;;;16.54;100.00;100343.22;5154896;28;20034;-72
2023/07/19 05:07:00;;;;;;;2.55;1.17;;;;;;;16.79;100.00;100338.91;5153083;28;20490;-72
2023/07/19 05:09:31;;;;;;;4.05;1.20;;;;;;;17.94;100.00;100332.81;5155762;28;20041;-72
2023/07/19 05:12:01;;;;;;;3.47;1.20;;;;;;;18.42;94.60;100338.19;5153151;28;20140;-71
2023/07/19 05:14:31;;;;;;;3.47;1.30;;;;;;;18.26;94.98;100337.56;5155167;28;20026;-72
2023/07/19 05:17:03;;;;;;;2.27;1.10;;;;;;;18.00;98.39;100332.41;5152066;28;20026;-71
2023/07/19 05:19:33;;;;;;;2.60;1.30;;;;;;;17.80;98.45;100332.94;5154839;28;20274;-72
2023/07/19 05:22:03;;;;;;;4.10;1.58;;;;;;;17.55;100.00;100332.91;5153955;28;20045;-71
2023/07/19 05:24:34;;;;;;;3.03;1.20;;;;;;;17.73;100.00;100332.50;5153877;28;20050;-70
2023/07/19 05:27:05;;;;;;;2.03;1.10;;;;;;;17.45;100.00;100331.84;5153101;28;20033;-72
2023/07/19 05:29:36;;;;;;;3.20;1.05;;;;;;;17.69;100.00;100328.38;5154659;28;20492;-71
2023/07/19 05:32:06;;;;;;;2.60;1.30;;;;;;;17.57;100.00;100331.00;5160239;28;20037;-72
2023/07/19 05:34:37;;;;;;;3.47;1.60;;;;;;;17.55;100.00;100331.13;5165697;28;20444;-72
2023/07/19 05:37:07;;;;;;;4.43;1.60;;;;;;;17.68;99.84;100326.66;5152245;28;20514;-71
2023/07/19 05:39:38;;;;;;;2.25;1.35;;;;;;;17.88;100.00;100325.31;5155323;28;20035;-72
2023/07/19 05:42:08;;;;;;;3.38;1.40;;;;;;;17.63;100.00;100327.97;5152941;28;20489;-72
2023/07/19 05:44:38;;;;;;;2.55;1.40;;;;;;;17.90;100.00;100320.75;5152769;28;20018;-71
2023/07/19 05:47:09;;;;;;;4.07;1.70;;;;;;;17.99;100.00;100325.44;5152983;28;20026;-71
2023/07/19 05:49:39;;;;;;;3.22;1.48;;;;;;;18.32;98.95;100325.72;5151949;28;20391;-72
2023/07/19 05:52:10;;;;;;;6.20;1.80;;;;;;;19.04;97.91;100324.72;5153099;28;20073;-72
2023/07/19 05:54:40;;;;;;;5.38;1.20;;;;;;;19.02;96.69;100321.34;5153380;28;20065;-72
2023/07/19 05:57:11;;;;;;;3.65;1.17;;;;;;;19.02;97.15;100323.13;5153001;28;20049;-71
2023/07/19 05:59:42;;;;;;;4.97;1.20;;;;;;;19.26;95.34;100314.25;5153417;28;20503;-72
2023/07/19 06:02:12;;;;;;;4.38;1.40;;;;;;;20.83;87.98;100301.69;5153849;28;20506;-72
2023/07/19 06:04:42;;;;;;;3.70;1.38;;;;;;;21.19;84.89;100305.75;5160225;28;20033;-72
2023/07/19 06:07:15;;;;;;;5.55;1.50;;;;;;;20.28;86.20;100314.16;5154335;28;20464;-71
2023/07/19 06:09:45;;;;;;;3.60;1.58;;;;;;;20.23;89.18;100313.69;5155335;28;20058;-72
2023/07/19 06:12:15;;;;;;;4.07;1.57;;;;;;;20.53;85.51;100305.94;5155088;28;20471;-72
2023/07/19 06:14:46;;;;;;;3.20;1.40;;;;;;;20.18;88.17;100305.28;5154819;28;20334;-72
2023/07/19 06:17:16;;;;;;;4.03;1.40;;;;;;;21.57;83.93;100288.25;5152730;28;20282;-72
2023/07/19 06:19:46;;;;;;;4.37;1.50;;;;;;;20.97;86.48;100300.53;5157526;28;20046;-72
2023/07/19 06:22:17;;;;;;;3.30;1.60;;;;;;;21.37;86.13;100301.56;5154522;28;20343;-72
2023/07/19 06:24:47;;;;;;;3.53;1.35;;;;;;;22.31;81.27;100295.09;5154217;28;20301;-72
2023/07/19 06:27:18;;;;;;;5.32;1.85;;;;;;;22.25;79.29;100287.66;5154433;28;20322;-72
2023/07/19 06:29:48;;;;;;;4.22;1.77;;;;;;;22.74;79.73;100284.03;5156459;28;20054;-70
2023/07/19 06:32:18;;;;;;;3.05;1.20;;;;;;;22.94;79.97;100288.41;5158361;28;20384;-72
2023/07/19 06:34:49;;;;;;;3.92;1.30;;;;;;;23.21;79.54;100290.41;5157692;28;20129;-71
2023/07/19 06:37:19;;;;;;;3.83;1.70;;;;;;;23.12;77.06;100284.09;5157332;28;20065;-72
2023/07/19 06:39:49;;;;;;;5.15;1.63;;;;;;;23.60;74.84;100279.53;5155651;28;20330;-72
2023/07/19 06:42:20;;;;;;;6.30;1.60;;;;;;;24.15;72.34;100280.50;5156949;28;20054;-72
2023/07/19 06:44:50;;;;;;;4.95;1.80;;;;;;;24.28;70.36;100273.84;5157337;28;20130;-71
2023/07/19 06:47:20;;;;;;;7.07;2.10;;;;;;;24.30;71.43;100279.03;5158044;28;20026;-72
2023/07/19 06:49:51;;;;;;;7.00;2.00;;;;;;;25.08;68.93;100269.38;5157430;28;20367;-73
2023/07/19 06:52:21;;;;;;;7.63;1.92;;;;;;;25.08;68.12;100258.66;5157015;28;20277;-73
2023/07/19 06:54:51;;;;;;;6.27;2.07;;;;;;;24.86;68.62;100267.16;5185518;22;20054;-75
2023/07/19 06:57:22;;;;;;;4.68;1.80;;;;;;;25.11;67.75;100279.78;5173490;28;20288;-73
2023/07/19 06:59:52;;;;;;;4.70;1.92;;;;;;;25.79;67.80;100270.94;5162017;28;20030;-75
2023/07/19 07:02:23;;;;;;;5.95;1.92;;;;;;;24.96;69.06;100276.78;5175523;28;20116;-75
2023/07/19 07:04:53;;;;;;;7.15;2.20;;;;;;;24.40;67.39;100280.66;5190813;28;20029;-75
2023/07/19 07:07:24;;;;;;;5.07;2.13;;;;;;;24.63;68.89;100284.63;5190683;28;20467;-75
2023/07/19 07:09:54;;;;;;;4.38;1.48;;;;;;;24.98;67.02;100284.69;5177082;28;20375;-75
2023/07/19 07:12:25;;;;;;;5.47;1.70;;;;;;;26.28;63.22;100279.13;5184069;28;20118;-75
2023/07/19 07:14:55;;;;;;;4.20;1.50;;;;;;;27.28;62.16;100276.22;5189876;28;20299;-76
2023/07/19 07:17:25;;;;;;;4.15;1.70;;;;;;;27.13;60.50;100277.88;5168656;28;20277;-75
2023/07/19 07:19:56;;;;;;;5.10;1.55;;;;;;;28.03;59.93;100285.72;5179290;28;20074;-76
2023/07/19 07:22:26;;;;;;;6.25;2.00;;;;;;;27.53;59.04;100285.09;5187363;28;20027;-75
2023/07/19 07:24:56;;;;;;;5.15;1.60;;;;;;;27.13;60.88;100280.56;5187736;28;20029;-75
2023/07/19 07:27:29;;;;;;;4.07;1.83;;;;;;;28.10;60.60;100276.78;5176528;28;20052;-76
2023/07/19 07:30:00;;;;;;;4.85;1.58;;;;;;;27.22;62.86;100287.63;5182568;28;20658;-76
2023/07/19 07:32:31;;;;;;;3.05;1.45;;;;;;;27.29;60.41;100291.31;5177091;28;20049;-76
2023/07/19 07:35:02;;;;;;;3.45;1.30;;;;;;;27.96;58.30;100299.00;5180864;28;20025;-73
2023/07/19 07:37:33;;;;;;;3.22;1.23;;;;;;;28.22;53.80;100283.47;5175720;28;20030;-75
2023/07/19 07:40:04;;;;;;;2.97;1.40;;;;;;;29.07;54.19;100283.41;5181375;28;20565;-76
2023/07/19 07:42:35;;;;;;;2.45;1.50;;;;;;;28.61;53.97;100284.34;5195089;28;20371;-76
2023/07/19 07:45:05;;;;;;;3.37;1.37;;;;;;;29.02;55.41;100285.78;5173489;28;20040;-75
2023/07/19 07:47:36;;;;;;;3.92;1.10;;;;;;;29.49;54.12;100278.38;5177805;28;20109;-76
2023/07/19 07:50:08;;;;;;;2.97;1.30;;;;;;;30.00;51.55;100262.19;5177861;28;20439;-75
2023/07/19 07:52:39;;;;;;;3.00;1.30;;;;;;;28.84;51.51;100252.91;5172433;28;20030;-75
2023/07/19 07:55:09;;;;;;;6.65;1.40;;;;;;;27.48;54.64;100265.97;5179964;28;20300;-75
2023/07/19 07:57:40;;;;;;;2.57;1.20;;;;;;;26.97;56.69;100269.78;5179637;28;20026;-75
2023/07/19 08:00:11;;;;;;;3.25;1.52;;;;;;;25.75;56.94;100270.44;5163381;28;20653;-75
2023/07/19 08:02:41;;;;;;;4.05;1.30;;;;;;;26.40;57.29;100266.25;5181328;28;20583;-75
2023/07/19 08:05:12;;;;;;;2.58;1.17;;;;;;;28.18;54.33;100260.66;5181051;28;20319;-75
2023/07/19 08:07:42;;;;;;;3.13;1.13;;;;;;;29.38;51.19;100257.25;5176414;28;20034;-75
2023/07/19 08:10:12;;;;;;;4.23;1.40;;;;;;;30.07;49.98;100271.22;5180698;28;20096;-75
2023/07/19 08:12:43;;;;;;;2.22;1.10;;;;;;;29.82;49.38;100261.72;5176507;28;20033;-75
2023/07/19 08:15:13;;;;;;;2.43;1.13;;;;;;;28.80;50.77;100263.22;5149743;28;20447;-75
2023/07/19 08:17:44;;;;;;;1.67;1.03;;;;;;;27.68;53.49;100276.19;5183596;28;20272;-74
2023/07/19 08:20:14;;;;;;;1.83;0.98;;;;;;;26.94;53.04;100267.44;5166423;28;20836;-75
2023/07/19 08:22:45;;;;;;;1.90;0.90;;;;;;;27.39;53.63;100261.59;5180029;28;20034;-75
2023/07/19 08:25:18;;;;;;;1.63;0.80;;;;;;;27.94;51.95;100262.56;5177586;28;20751;-75
2023/07/19 08:27:48;;;;;;;2.33;0.88;;;;;;;27.69;51.18;100267.13;5175132;28;20037;-72
2023/07/19 08:30:18;;;;;;;4.47;1.10;;;;;;;27.89;52.45;100272.97;5175662;28;20036;-75
2023/07/19 08:32:48;;;;;;;4.10;1.10;;;;;;;29.04;49.82;100256.84;5178792;28;20034;-74
2023/07/19 08:35:19;;;;;;;5.15;1.20;;;;;;;29.75;48.77;100254.56;5178165;28;20277;-75
2023/07/19 08:37:49;;;;;;;4.68;1.00;;;;;;;28.93;48.90;100265.34;5174797;28;20026;-73
2023/07/19 08:40:19;;;;;;;6.38;0.80;;;;;;;29.52;48.94;100259.16;5174571;28;20101;-75
2023/07/19 08:42:50;;;;;;;1.80;0.80;;;;;;;30.46;47.65;100260.13;5178671;28;20523;-75
2023/07/19 08:45:23;;;;;;;4.05;0.70;;;;;;;29.24;50.11;100261.53;5182064;28;20112;-75
2023/07/19 08:47:53;;;;;;;2.30;0.80;;;;;;;30.02;47.36;100252.06;5171539;28;20490;-75
2023/07/19 08:50:25;;;;;;;1.83;0.70;;;;;;;29.15;49.37;100262.66;5165155;28;20026;-74
2023/07/19 08:53:01;;;;;;;1.40;0.70;;;;;;;28.28;50.59;100261.25;5157594;28;20029;-75
2023/07/19 08:55:31;;;;;;;3.13;1.10;;;;;;;27.82;50.80;100264.75;5162544;28;20436;-75
2023/07/19 08:58:01;;;;;;;2.78;1.00;;;;;;;27.09;51.98;100267.63;5174211;28;20034;-75
2023/07/19 09:00:34;;;;;;;3.60;0.90;;;;;;;26.88;52.46;100260.06;5176834;28;20098;-75
2023/07/19 09:03:04;;;;;;;2.25;1.08;;;;;;;26.37;53.77;100267.41;5174327;28;20391;-74
2023/07/19 09:05:35;;;;;;;3.67;0.98;;;;;;;26.75;52.81;100267.75;5177519;28;20030;-75
2023/07/19 09:08:08;;;;;;;2.75;0.98;;;;;;;28.64;50.74;100264.31;5176503;28;20451;-73
2023/07/19 09:10:43;;;;;;;1.63;0.80;;;;;;;30.09;48.26;100258.41;5177817;28;20429;-74
2023/07/19 09:13:19;;;;;;;1.55;0.70;;;;;;;29.90;46.96;100268.88;5181353;28;20030;-75
2023/07/19 09:15:49;;;;;;;2.28;0.90;;;;;;;30.89;46.71;100260.88;5174384;28;20130;-74
2023/07/19 09:18:20;;;;;;;2.17;1.00;;;;;;;30.77;46.23;100252.66;5184713;28;20030;-75
2023/07/19 09:20:57;;;;;;;1.23;0.77;;;;;;;30.62;45.26;100254.53;5179925;28;20054;-75
2023/07/19 09:23:33;;;;;;;1.63;1.00;;;;;;;29.94;46.65;100256.69;5176581;28;20185;-75
2023/07/19 09:26:05;;;;;;;1.58;0.88;;;;;;;28.92;47.12;100261.78;5173857;28;20045;-75
2023/07/19 09:28:35;;;;;;;1.83;0.93;;;;;;;28.88;48.88;100247.00;5179673;28;20116;-75
2023/07/19 09:31:06;;;;;;;3.00;1.10;;;;;;;28.99;48.23;100251.16;5176387;28;20336;-75
2023/07/19 09:33:36;;;;;;;4.63;1.00;;;;;;;28.33;49.68;100252.72;5170349;28;20067;-75
2023/07/19 09:36:06;;;;;;;1.77;0.85;;;;;;;28.19;49.22;100246.19;5176453;28;21292;-73
2023/07/19 09:38:37;;;;;;;1.83;1.00;;;;;;;29.53;47.65;100239.25;5176966;28;20070;-76
2023/07/19 09:41:07;;;;;;;2.58;1.20;;;;;;;30.10;48.45;100237.66;5173058;28;20030;-73
2023/07/19 09:43:39;;;;;;;2.60;1.00;;;;;;;30.95;46.86;100233.13;5175453;28;20487;-77
2023/07/19 09:46:10;;;;;;;2.42;1.15;;;;;;;32.46;45.72;100228.63;5173904;28;20663;-76
2023/07/19 09:48:41;;;;;;;4.55;1.13;;;;;;;31.20;46.20;100228.19;5152967;28;20061;-76
2023/07/19 09:51:12;;;;;;;2.77;1.10;;;;;;;31.30;46.73;100229.53;5179151;28;20061;-76
2023/07/19 09:53:44;;;;;;;3.10;1.20;;;;;;;29.31;47.73;100235.59;5175739;28;20038;-76
2023/07/19 09:56:14;;;;;;;3.88;1.13;;;;;;;29.27;47.45;100228.88;5175400;28;20064;-76
2023/07/19 09:58:45;;;;;;;4.30;1.30;;;;;;;30.13;47.62;100224.66;5183545;28;20183;-77
2023/07/19 10:01:15;;;;;;;2.70;1.10;;;;;;;30.09;48.07;100225.22;5174988;28;20293;-75
2023/07/19 10:03:46;;;;;;;4.15;1.10;;;;;;;30.94;45.76;100227.88;5175419;28;20067;-76
2023/07/19 10:06:16;;;;;;;5.30;1.20;;;;;;;30.68;46.59;100226.78;5177656;28;20030;-76
2023/07/19 10:08:46;;;;;;;4.10;1.23;;;;;;;29.76;47.19;100229.28;5178579;28;20038;-76
2023/07/19 10:11:23;;;;;;;6.33;1.07;;;;;;;30.51;45.95;100222.63;5177651;28;20292;-76
2023/07/19 10:13:58;;;;;;;2.83;1.10;;;;;;;29.07;47.61;100232.25;5175130;28;20109;-76
2023/07/19 10:16:35;;;;;;;;;;;;;;;30.08;46.40;100226.25;5187325;28;21186;-76
2023/07/19 10:19:12;;;;;;;1.70;1.00;;;;;;;29.25;48.28;100219.31;5184735;28;19917;-76
2023/07/19 10:22:02;;;;;;;2.30;0.90;;;;;;;28.79;48.64;100229.25;5189221;28;20069;-76
2023/07/19 10:24:35;;;;;;;2.03;0.82;;;;;;;28.62;50.80;100212.53;5185416;28;20266;-73
2023/07/19 10:27:07;;;;;;;2.22;1.00;;;;;;;28.39;49.66;100208.97;5197730;28;20025;-76
2023/07/19 10:29:43;;;;;;;2.95;1.30;;;;;;;28.03;51.11;100223.88;5184118;28;20161;-76
2023/07/19 10:32:13;;;;;;;;;;;;;;;27.65;50.68;100208.53;5184292;28;20082;-75
2023/07/19 10:34:49;;;;;;;2.27;1.10;;;;;;;27.85;50.80;100210.72;5178605;28;20411;-75
2023/07/19 10:37:19;;;;;;;1.83;1.00;;;;;;;27.65;52.71;100209.34;5187018;28;20044;-75
2023/07/19 10:39:50;;;;;;;2.37;1.10;;;;;;;27.50;52.78;100216.47;5193446;28;20026;-75
2023/07/19 10:42:20;;;;;;;3.03;1.43;;;;;;;27.23;53.43;100213.28;5192010;28;20786;-75
2023/07/19 10:44:50;;;;;;;2.10;0.90;;;;;;;27.19;52.42;100212.81;5158607;28;20277;-76
2023/07/19 10:47:21;;;;;;;1.80;0.90;;;;;;;27.28;52.63;100211.78;5183407;28;20367;-76
2023/07/19 10:49:52;;;;;;;1.90;0.90;;;;;;;27.39;53.52;100208.75;5194325;28;20045;-75
2023/07/19 10:52:22;;;;;;;3.20;1.10;;;;;;;27.26;54.82;100211.13;5191744;28;20036;-75
2023/07/19 10:54:54;;;;;;;2.33;1.00;;;;;;;27.37;53.51;100208.09;5183159;28;20029;-76
2023/07/19 10:57:27;;;;;;;2.95;0.90;;;;;;;27.61;53.45;100213.41;5189946;28;20444;-76
2023/07/19 10:59:57;;;;;;;2.10;0.93;;;;;;;27.65;54.19;100221.97;5177029;28;20108;-76
2023/07/19 11:02:27;;;;;;;2.80;1.20;;;;;;;27.71;53.87;100214.09;5187828;28;20110;-76
2023/07/19 11:04:59;;;;;;;3.33;1.08;;;;;;;27.61;51.82;100216.09;5166334;28;20399;-75
2023/07/19 11:07:33;;;;;;;2.40;0.98;;;;;;;27.66;53.35;100218.28;5181471;28;20387;-76
2023/07/19 11:10:04;;;;;;;4.65;1.45;;;;;;;27.56;52.98;100207.72;5189322;28;20030;-75
2023/07/19 11:12:34;;;;;;;2.13;1.00;;;;;;;27.51;53.04;100210.09;5176595;28;20030;-75
2023/07/19 11:15:07;;;;;;;8.00;1.10;;;;;;;27.54;54.15;100207.06;5176130;28;20304;-75
2023/07/19 11:17:38;;;;;;;2.90;1.23;;;;;;;27.66;52.85;100189.56;5180337;28;20026;-75
2023/07/19 11:20:09;;;;;;;2.53;0.98;;;;;;;28.05;54.76;100200.38;5187998;28;20026;-76
2023/07/19 11:22:39;;;;;;;8.13;0.98;;;;;;;27.93;54.87;100207.16;5161362;28;20026;-76
2023/07/19 11:25:10;;;;;;;2.95;1.00;;;;;;;27.26;54.63;100208.44;5180777;28;20087;-76
2023/07/19 11:27:41;;;;;;;4.63;1.02;;;;;;;27.17;54.06;100206.78;5182426;28;20050;-76
2023/07/19 11:30:11;;;;;;;3.05;1.23;;;;;;;26.86;57.02;100207.56;5190628;28;20213;-75
2023/07/19 11:32:41;;;;;;;3.08;1.00;;;;;;;26.51;56.31;100215.06;5179128;28;20062;-75
2023/07/19 11:35:12;;;;;;;2.10;0.93;;;;;;;26.49;56.97;100212.53;5182447;28;20033;-76
2023/07/19 11:37:42;;;;;;;4.32;1.08;;;;;;;26.57;56.76;100211.72;5191745;28;20308;-76